Time;durP1;ratioP1;P1;durP2;ratioP2;P2;SDS_P1;SDS_P2;PMS_P1;PMS_P2;Temp;Humidity;BMP_temperature;BMP_pressure;BME280_temperature;BME280_humidity;BME280_pressure;Samples;Min_cycle;Max_cycle;Signal;HPM_P1;HPM_P2
2023/10/15 00:00:18;;;;;;;8.25;2.00;;;8.50;99.90;;;;;;5080198;28;20058;-70
2023/10/15 00:02:49;;;;;;;8.93;2.08;;;8.50;99.90;;;;;;5081374;28;20054;-69
2023/10/15 00:05:17;;;;;;;8.70;2.25;;;8.50;99.90;;;;;;5114969;28;20052;-69
2023/10/15 00:07:45;;;;;;;5.82;2.03;;;8.50;99.90;;;;;;5096295;28;20139;-70
2023/10/15 00:10:12;;;;;;;8.65;2.28;;;8.50;99.90;;;;;;5114721;28;20044;-70
2023/10/15 00:12:43;;;;;;;4.35;1.65;;;8.50;99.90;;;;;;5096568;28;20051;-68
2023/10/15 00:15:19;;;;;;;9.02;1.98;;;8.40;99.90;;;;;;5096784;28;20039;-70
2023/10/15 00:17:53;;;;;;;14.52;2.60;;;8.40;99.90;;;;;;5096575;28;20051;-69
2023/10/15 00:20:22;;;;;;;10.38;2.05;;;8.40;99.90;;;;;;5114876;28;20036;-72
2023/10/15 00:22:51;;;;;;;7.68;1.88;;;8.40;99.90;;;;;;5096402;28;20058;-69
2023/10/15 00:25:19;;;;;;;11.18;2.65;;;8.30;99.90;;;;;;5096609;28;20116;-69
2023/10/15 00:27:52;;;;;;;7.50;2.20;;;8.30;99.90;;;;;;5113965;28;20036;-70
2023/10/15 00:30:19;;;;;;;10.43;1.90;;;8.30;99.90;;;;;;5096332;28;20459;-69
2023/10/15 00:32:46;;;;;;;9.48;2.13;;;8.30;99.90;;;;;;5096075;28;20040;-69
2023/10/15 00:35:13;;;;;;;10.63;2.55;;;8.30;99.90;;;;;;5095995;28;20062;-70
2023/10/15 00:37:54;;;;;;;9.13;2.22;;;8.30;99.90;;;;;;5078968;28;20411;-69
2023/10/15 00:40:21;;;;;;;6.70;2.08;;;8.30;99.90;;;;;;5079396;28;20044;-69
2023/10/15 00:42:47;;;;;;;6.43;1.65;;;8.20;99.90;;;;;;5078855;28;20044;-69
2023/10/15 00:45:20;;;;;;;11.10;2.40;;;8.30;99.90;;;;;;5079443;28;20051;-70
2023/10/15 00:48:07;;;;;;;8.30;1.90;;;8.20;99.90;;;;;;5078736;28;20051;-69
2023/10/15 00:50:43;;;;;;;7.47;2.25;;;8.20;99.90;;;;;;5113633;28;20039;-69
2023/10/15 00:53:27;;;;;;;6.80;2.00;;;8.20;99.90;;;;;;5096046;28;20050;-69
2023/10/15 00:56:10;;;;;;;7.82;2.67;;;8.20;99.90;;;;;;5095846;28;20043;-70
2023/10/15 00:58:54;;;;;;;9.02;2.30;;;8.20;99.90;;;;;;5095426;28;20035;-70
2023/10/15 01:01:22;;;;;;;8.98;2.35;;;8.10;99.90;;;;;;5081359;28;20040;-72
2023/10/15 01:03:56;;;;;;;8.75;2.53;;;8.10;99.90;;;;;;5095353;28;20130;-70
2023/10/15 01:09:01;;;;;;;10.13;2.35;;;8.10;99.90;;;;;;5080124;28;20522;-69
2023/10/15 01:11:29;;;;;;;5.95;1.92;;;8.20;99.90;;;;;;5095803;28;20057;-70
2023/10/15 01:13:55;;;;;;;10.15;1.90;;;8.20;99.90;;;;;;5095545;28;20075;-70
2023/10/15 01:16:22;;;;;;;7.85;1.95;;;8.30;99.90;;;;;;5078799;28;20082;-70
2023/10/15 01:18:56;;;;;;;6.65;2.05;;;8.30;99.90;;;;;;5095660;28;20055;-69
2023/10/15 01:21:28;;;;;;;9.05;1.98;;;8.30;99.90;;;;;;5079605;28;20062;-69
2023/10/15 01:24:04;;;;;;;10.25;2.38;;;8.30;99.90;;;;;;5113078;28;20083;-69
2023/10/15 01:26:34;;;;;;;6.60;2.05;;;8.30;99.90;;;;;;5063661;28;20043;-70
2023/10/15 01:29:01;;;;;;;10.35;2.00;;;8.30;99.90;;;;;;5113445;28;20227;-69
2023/10/15 01:31:27;;;;;;;9.90;2.35;;;8.30;99.90;;;;;;5077933;28;20056;-73
2023/10/15 01:33:53;;;;;;;9.60;2.58;;;8.40;99.90;;;;;;5112338;28;20040;-68
2023/10/15 01:36:27;;;;;;;8.90;2.08;;;8.40;99.90;;;;;;5112892;28;20039;-70
2023/10/15 01:39:09;;;;;;;18.30;2.67;;;8.40;99.90;;;;;;5078895;28;20227;-69
2023/10/15 01:41:39;;;;;;;14.52;2.35;;;8.40;99.90;;;;;;5077344;28;20087;-76
2023/10/15 01:44:06;;;;;;;14.02;2.30;;;8.40;99.90;;;;;;5112903;28;20195;-69
2023/10/15 01:49:16;;;;;;;9.93;2.28;;;8.30;99.90;;;;;;5079419;28;20177;-70
2023/10/15 01:51:44;;;;;;;14.43;2.83;;;8.30;99.90;;;;;;5073585;28;20059;-69
2023/10/15 01:54:10;;;;;;;9.30;2.92;;;8.20;99.90;;;;;;5091366;28;20048;-68
2023/10/15 01:56:44;;;;;;;9.15;1.83;;;8.20;99.90;;;;;;5091041;28;20052;-75
2023/10/15 01:59:10;;;;;;;;;;;8.20;99.90;;;;;;5092614;28;20046;-68
2023/10/15 02:01:49;;;;;;;10.38;2.17;;;8.20;99.90;;;;;;5091957;28;19923;-76
2023/10/15 02:04:41;;;;;;;8.23;2.20;;;8.10;99.90;;;;;;5091188;28;20051;-68
2023/10/15 02:07:03;;;;;;;5.43;1.70;;;8.10;99.90;;;;;;5090407;28;20112;-69
2023/10/15 02:09:30;;;;;;;8.07;2.17;;;8.00;99.90;;;;;;5092418;28;20044;-68
2023/10/15 02:11:56;;;;;;;5.80;1.92;;;7.90;99.90;;;;;;5090917;28;20101;-72
2023/10/15 02:14:27;;;;;;;7.13;1.90;;;7.90;99.90;;;;;;5074203;28;20489;-69
2023/10/15 02:16:53;;;;;;;8.13;1.90;;;7.80;99.90;;;;;;5090768;28;20047;-69
2023/10/15 02:19:30;;;;;;;8.90;1.98;;;7.80;99.90;;;;;;5074061;28;20599;-69
2023/10/15 02:21:56;;;;;;;7.93;1.70;;;7.80;99.90;;;;;;5090845;28;20052;-70
2023/10/15 02:24:23;;;;;;;6.70;2.03;;;7.70;99.90;;;;;;5090858;28;20044;-69
2023/10/15 02:26:49;;;;;;;6.93;1.85;;;7.70;99.90;;;;;;5073962;28;20395;-70
2023/10/15 02:34:54;;;;;;;8.88;2.15;;;7.50;99.90;;;;;;5076313;28;20106;-69
2023/10/15 02:37:27;;;;;;;7.35;2.45;;;7.50;99.90;;;;;;5091114;28;20052;-69
2023/10/15 02:39:58;;;;;;;8.88;2.40;;;7.50;99.90;;;;;;5073436;28;20508;-69
2023/10/15 02:42:30;;;;;;;9.25;2.90;;;7.50;99.90;;;;;;5074551;28;20052;-69
2023/10/15 02:45:00;;;;;;;10.75;2.25;;;7.60;99.90;;;;;;5091965;28;20405;-69
2023/10/15 02:47:41;;;;;;;8.18;2.08;;;7.50;99.90;;;;;;5093818;28;20127;-69
2023/10/15 02:50:09;;;;;;;9.43;2.55;;;7.50;99.90;;;;;;5094193;28;20047;-70
2023/10/15 02:52:35;;;;;;;9.77;2.85;;;7.50;99.90;;;;;;5090817;28;20052;-70
2023/10/15 02:55:11;;;;;;;7.95;2.20;;;7.50;99.90;;;;;;5090444;28;20150;-68
2023/10/15 02:57:38;;;;;;;5.32;2.33;;;7.50;99.90;;;;;;5090538;28;20510;-69
2023/10/15 03:00:51;;;;;;;12.30;2.42;;;7.50;99.90;;;;;;5091520;28;20040;-70
2023/10/15 03:03:09;;;;;;;10.45;2.72;;;7.60;99.90;;;;;;5087179;28;20231;-67
2023/10/15 03:05:42;;;;;;;7.72;1.95;;;7.50;99.90;;;;;;5074597;28;20052;-69
2023/10/15 03:08:16;;;;;;;8.98;2.00;;;7.50;99.90;;;;;;5091597;28;20481;-69
2023/10/15 03:10:46;;;;;;;;;;;7.40;99.90;;;;;;5092552;28;20047;-70
2023/10/15 03:13:15;;;;;;;9.57;1.70;;;7.50;99.90;;;;;;5095631;28;19920;-68
2023/10/15 03:15:50;;;;;;;7.20;1.75;;;7.50;99.90;;;;;;5095589;28;20040;-69
2023/10/15 03:18:23;;;;;;;5.43;1.50;;;7.40;99.90;;;;;;5077856;28;20051;-68
2023/10/15 03:21:00;;;;;;;7.10;1.67;;;7.50;99.90;;;;;;5094420;28;20051;-74
2023/10/15 03:23:26;;;;;;;5.68;1.15;;;7.50;99.90;;;;;;5094213;28;20083;-68
2023/10/15 03:25:58;;;;;;;6.45;1.48;;;7.40;99.90;;;;;;5095085;28;20090;-69
2023/10/15 03:28:24;;;;;;;5.82;1.88;;;7.50;99.90;;;;;;5077237;28;20135;-69
2023/10/15 03:30:56;;;;;;;5.38;1.60;;;7.40;99.90;;;;;;5094019;28;20127;-74
2023/10/15 03:33:30;;;;;;;6.78;1.60;;;7.40;99.90;;;;;;5094134;28;20508;-69
2023/10/15 03:36:03;;;;;;;4.43;1.40;;;7.40;99.90;;;;;;5094160;28;20048;-69
2023/10/15 03:38:32;;;;;;;3.58;1.30;;;7.40;99.90;;;;;;5094450;28;20052;-69
2023/10/15 03:41:43;;;;;;;6.07;1.10;;;7.40;99.90;;;;;;5094946;28;20059;-69
2023/10/15 03:43:49;;;;;;;4.25;1.13;;;7.40;99.90;;;;;;5089057;28;20054;-68
2023/10/15 03:46:19;;;;;;;4.63;1.08;;;7.40;99.90;;;;;;5093766;28;20426;-68
2023/10/15 03:48:48;;;;;;;4.28;1.23;;;7.40;99.90;;;;;;5077116;28;20047;-69
2023/10/15 03:51:20;;;;;;;3.33;1.15;;;7.40;99.90;;;;;;5095283;28;20050;-68
2023/10/15 03:53:50;;;;;;;2.88;1.02;;;7.40;99.90;;;;;;5097386;28;20047;-68
2023/10/15 03:56:27;;;;;;;3.67;1.23;;;7.40;99.90;;;;;;5097230;28;20150;-69
2023/10/15 03:58:53;;;;;;;4.50;1.48;;;7.40;99.90;;;;;;5081791;28;20126;-76
2023/10/15 04:01:19;;;;;;;4.53;1.33;;;7.40;99.90;;;;;;5115042;28;20069;-68
2023/10/15 04:03:49;;;;;;;4.55;1.15;;;7.40;99.90;;;;;;5097134;28;20450;-68
2023/10/15 04:06:19;;;;;;;6.35;1.40;;;7.40;99.90;;;;;;5114867;28;20127;-68
2023/10/15 04:09:23;;;;;;;4.03;1.25;;;7.40;99.90;;;;;;5096820;28;20453;-68
2023/10/15 04:11:42;;;;;;;4.93;1.13;;;7.40;99.90;;;;;;5091640;28;20465;-68
2023/10/15 04:14:46;;;;;;;5.45;1.52;;;7.40;99.90;;;;;;5114585;28;20461;-69
2023/10/15 04:17:06;;;;;;;3.55;1.25;;;7.50;99.90;;;;;;5091453;28;20342;-68
2023/10/15 04:19:32;;;;;;;2.90;1.10;;;7.40;99.90;;;;;;5097291;28;20047;-69
2023/10/15 04:22:09;;;;;;;6.93;1.85;;;7.40;99.90;;;;;;5079766;28;20112;-76
2023/10/15 04:24:42;;;;;;;6.28;1.42;;;7.50;99.90;;;;;;5114459;28;20054;-69
2023/10/15 04:27:15;;;;;;;2.42;1.20;;;7.40;99.90;;;;;;5080360;28;20481;-68
2023/10/15 04:29:52;;;;;;;4.13;1.27;;;7.50;99.90;;;;;;5097659;28;20049;-68
2023/10/15 04:33:08;;;;;;;4.35;1.27;;;7.40;99.90;;;;;;5096394;28;20136;-68
2023/10/15 04:35:11;;;;;;;3.40;1.23;;;7.30;99.90;;;;;;5081742;28;20051;-68
2023/10/15 04:37:37;;;;;;;5.82;1.02;;;7.30;99.90;;;;;;5114566;28;20075;-68
2023/10/15 04:40:11;;;;;;;4.28;1.35;;;7.30;99.90;;;;;;5114232;28;20039;-68
2023/10/15 04:42:43;;;;;;;3.23;1.00;;;7.30;99.90;;;;;;5096429;28;20051;-68
2023/10/15 04:48:13;;;;;;;6.22;1.33;;;7.30;99.90;;;;;;5099891;28;20047;-68
2023/10/15 04:50:40;;;;;;;4.00;1.05;;;7.30;99.90;;;;;;5097605;28;20040;-68
2023/10/15 04:53:12;;;;;;;2.90;1.20;;;7.20;99.90;;;;;;5113649;28;20062;-69
2023/10/15 04:55:42;;;;;;;4.03;1.00;;;7.20;99.90;;;;;;5098174;28;20055;-68
2023/10/15 04:58:09;;;;;;;6.63;1.30;;;7.20;99.90;;;;;;5115393;28;20043;-68
2023/10/15 05:00:41;;;;;;;4.47;1.10;;;7.20;99.90;;;;;;5114414;28;20492;-68
2023/10/15 05:03:09;;;;;;;6.65;1.63;;;7.20;99.90;;;;;;5095847;28;20126;-69
2023/10/15 05:05:36;;;;;;;5.45;1.50;;;7.20;99.90;;;;;;5095978;28;20217;-69
2023/10/15 05:08:02;;;;;;;6.75;1.35;;;7.20;99.90;;;;;;5113769;28;20051;-74
2023/10/15 05:10:33;;;;;;;7.13;1.20;;;7.10;99.90;;;;;;5095616;28;20051;-67
2023/10/15 05:13:02;;;;;;;6.72;1.50;;;7.20;99.90;;;;;;5095642;28;20051;-69
2023/10/15 05:15:28;;;;;;;5.03;1.50;;;7.10;99.90;;;;;;5113300;28;20126;-68
2023/10/15 05:17:53;;;;;;;6.32;1.63;;;7.10;99.90;;;;;;5113450;28;20074;-69
2023/10/15 05:20:22;;;;;;;4.13;1.30;;;7.20;99.90;;;;;;5095010;28;20054;-68
2023/10/15 05:22:49;;;;;;;6.65;1.45;;;7.10;99.90;;;;;;5095826;28;20046;-68
2023/10/15 05:25:17;;;;;;;5.05;1.45;;;7.10;99.90;;;;;;5078344;28;20047;-69
2023/10/15 05:27:49;;;;;;;4.30;1.45;;;7.10;99.90;;;;;;5113114;28;20485;-69
2023/10/15 05:30:15;;;;;;;4.05;1.10;;;7.20;99.90;;;;;;5112671;28;20561;-68
2023/10/15 05:32:44;;;;;;;5.85;1.60;;;7.20;99.90;;;;;;5078259;28;20047;-68
2023/10/15 05:35:11;;;;;;;3.55;1.17;;;7.10;99.90;;;;;;5112054;28;20043;-69
2023/10/15 05:37:39;;;;;;;4.00;1.17;;;7.10;99.90;;;;;;5094767;28;20481;-67
2023/10/15 05:40:06;;;;;;;3.33;1.48;;;7.10;99.90;;;;;;5078335;28;20055;-68
2023/10/15 05:42:32;;;;;;;4.97;1.55;;;7.10;99.90;;;;;;5112965;28;20043;-68
2023/10/15 05:44:58;;;;;;;6.32;1.75;;;7.20;99.90;;;;;;5094570;28;20150;-68
2023/10/15 05:47:24;;;;;;;9.63;1.73;;;7.20;99.90;;;;;;5077038;28;20130;-69
2023/10/15 05:49:50;;;;;;;9.00;1.90;;;7.20;99.90;;;;;;5078113;28;20040;-68
2023/10/15 05:52:16;;;;;;;7.10;1.48;;;7.10;99.90;;;;;;5094436;28;20056;-68
2023/10/15 05:54:42;;;;;;;4.55;1.33;;;7.20;99.90;;;;;;5094755;28;20549;-69
2023/10/15 05:57:08;;;;;;;5.88;1.50;;;7.20;99.90;;;;;;5078311;28;20491;-69
2023/10/15 05:59:36;;;;;;;6.05;1.58;;;7.10;99.90;;;;;;5112771;28;20044;-69
2023/10/15 06:02:02;;;;;;;9.25;1.83;;;7.10;99.90;;;;;;5112861;28;20389;-69
2023/10/15 06:04:28;;;;;;;8.07;1.50;;;7.20;99.90;;;;;;5094393;28;20195;-68
2023/10/15 06:06:55;;;;;;;7.70;1.50;;;7.20;99.90;;;;;;5077671;28;20048;-69
2023/10/15 06:09:20;;;;;;;4.65;1.52;;;7.20;99.90;;;;;;5112147;28;20047;-69
2023/10/15 06:11:46;;;;;;;6.35;1.33;;;7.20;99.90;;;;;;5094745;28;20058;-70
2023/10/15 06:14:12;;;;;;;5.53;1.30;;;7.20;99.90;;;;;;5094161;28;20046;-73
2023/10/15 06:16:38;;;;;;;9.52;2.05;;;7.20;99.90;;;;;;5112652;28;20401;-69
2023/10/15 06:19:04;;;;;;;4.32;1.48;;;7.20;99.90;;;;;;5112601;28;20043;-69
2023/10/15 06:21:29;;;;;;;4.15;1.30;;;7.20;99.90;;;;;;5112352;28;20111;-68
2023/10/15 06:23:55;;;;;;;8.75;1.67;;;7.30;99.90;;;;;;5094548;28;20054;-69
2023/10/15 06:26:21;;;;;;;5.38;1.30;;;7.30;99.90;;;;;;5112186;28;20472;-67
2023/10/15 06:28:46;;;;;;;7.80;1.77;;;7.20;99.90;;;;;;5093890;28;20126;-68
2023/10/15 06:31:12;;;;;;;8.63;1.88;;;7.20;99.90;;;;;;5094453;28;20043;-68
2023/10/15 06:33:40;;;;;;;6.85;1.30;;;7.20;99.90;;;;;;5112226;28;20069;-68
2023/10/15 06:36:09;;;;;;;9.88;1.60;;;7.20;99.90;;;;;;5094374;28;20047;-68
2023/10/15 06:38:35;;;;;;;6.72;1.38;;;7.10;99.90;;;;;;5093894;28;20114;-67
2023/10/15 06:41:01;;;;;;;6.90;1.55;;;7.10;99.90;;;;;;5077660;28;20412;-69
2023/10/15 06:43:28;;;;;;;6.25;1.30;;;7.10;99.90;;;;;;5111744;28;20043;-68
2023/10/15 06:45:53;;;;;;;7.82;1.77;;;7.10;99.90;;;;;;5078180;28;20128;-67
2023/10/15 06:48:22;;;;;;;7.32;1.70;;;7.10;99.90;;;;;;5098010;28;20086;-69
2023/10/15 06:50:48;;;;;;;5.55;1.42;;;7.10;99.90;;;;;;5116611;28;20425;-69
2023/10/15 06:53:15;;;;;;;3.60;1.10;;;7.10;99.90;;;;;;5097878;28;20063;-68
2023/10/15 06:55:45;;;;;;;7.13;1.58;;;7.20;99.90;;;;;;5098147;28;20067;-68
2023/10/15 06:58:11;;;;;;;6.88;1.60;;;7.20;99.90;;;;;;5098596;28;20436;-68
2023/10/15 07:00:37;;;;;;;4.63;1.40;;;7.20;99.90;;;;;;5116253;28;20430;-68
2023/10/15 07:03:04;;;;;;;5.07;1.45;;;7.30;99.90;;;;;;5099766;28;20087;-69
2023/10/15 07:05:29;;;;;;;6.68;1.55;;;7.30;99.90;;;;;;5117549;28;20096;-69
2023/10/15 07:07:58;;;;;;;4.75;1.50;;;7.40;99.90;;;;;;5081305;28;20044;-68
2023/10/15 07:10:24;;;;;;;5.25;1.35;;;7.40;99.90;;;;;;5097366;28;20039;-68
2023/10/15 07:12:50;;;;;;;5.78;1.60;;;7.40;99.90;;;;;;5116211;28;20493;-68
2023/10/15 07:15:17;;;;;;;6.18;1.58;;;7.40;99.90;;;;;;5097871;28;20086;-69
2023/10/15 07:17:44;;;;;;;3.38;1.38;;;7.40;99.90;;;;;;5097595;28;20378;-69
2023/10/15 07:20:18;;;;;;;2.83;1.23;;;7.30;99.90;;;;;;5098057;28;20054;-69
2023/10/15 07:22:46;;;;;;;4.13;1.17;;;7.30;99.90;;;;;;5081849;28;20074;-68
2023/10/15 07:25:13;;;;;;;3.05;1.00;;;7.40;99.90;;;;;;5081209;28;20135;-68
2023/10/15 07:27:42;;;;;;;4.32;1.50;;;7.40;99.90;;;;;;5097583;28;20481;-68
2023/10/15 07:30:12;;;;;;;3.50;1.25;;;7.40;99.90;;;;;;5115620;28;20044;-68
2023/10/15 07:32:39;;;;;;;9.30;1.95;;;7.50;99.90;;;;;;5097262;28;20442;-68
2023/10/15 07:35:11;;;;;;;3.75;1.40;;;7.50;99.90;;;;;;5081090;28;20074;-68
2023/10/15 07:37:39;;;;;;;3.65;1.33;;;7.50;99.90;;;;;;5097808;28;20094;-69
2023/10/15 07:40:06;;;;;;;6.35;1.90;;;7.50;99.90;;;;;;5063966;28;20096;-69
2023/10/15 07:42:33;;;;;;;3.30;1.08;;;7.50;99.90;;;;;;5080130;28;20051;-68
2023/10/15 07:44:59;;;;;;;5.53;1.50;;;7.50;99.90;;;;;;5115448;28;20104;-69
2023/10/15 07:47:26;;;;;;;10.38;2.17;;;7.50;99.90;;;;;;5115266;28;20055;-75
2023/10/15 07:49:52;;;;;;;5.05;1.60;;;7.50;99.90;;;;;;5080168;28;20126;-69
2023/10/15 07:52:17;;;;;;;3.70;1.27;;;7.50;99.90;;;;;;5096846;28;20189;-68
2023/10/15 07:54:43;;;;;;;3.80;1.40;;;7.50;99.90;;;;;;5063226;28;20059;-69
2023/10/15 07:57:10;;;;;;;6.47;1.63;;;7.50;99.90;;;;;;5115143;28;20044;-69
2023/10/15 07:59:36;;;;;;;6.20;1.55;;;7.60;99.90;;;;;;5096255;28;20050;-69
2023/10/15 08:02:03;;;;;;;7.57;1.88;;;7.60;99.90;;;;;;5115130;28;20040;-70
2023/10/15 08:04:29;;;;;;;4.32;1.85;;;7.80;99.90;;;;;;5096586;28;20047;-68
2023/10/15 08:06:55;;;;;;;4.95;2.00;;;8.10;99.90;;;;;;5080292;28;20043;-69
2023/10/15 08:09:21;;;;;;;8.15;1.95;;;8.50;99.90;;;;;;5114936;28;20091;-68
2023/10/15 08:11:47;;;;;;;5.32;1.77;;;8.90;99.90;;;;;;5096363;28;20140;-68
2023/10/15 08:14:13;;;;;;;8.05;2.42;;;9.20;99.90;;;;;;5114673;28;20043;-68
2023/10/15 08:16:38;;;;;;;6.90;2.08;;;9.30;99.90;;;;;;5096473;28;20087;-69
2023/10/15 08:19:04;;;;;;;8.48;1.90;;;9.10;99.90;;;;;;5080060;28;20560;-70
2023/10/15 08:21:30;;;;;;;7.30;1.95;;;8.90;99.90;;;;;;5114547;28;20040;-75
2023/10/15 08:23:57;;;;;;;5.63;1.90;;;8.80;99.90;;;;;;5114637;28;20061;-69
2023/10/15 08:26:22;;;;;;;5.07;2.00;;;9.10;99.90;;;;;;5080127;28;20650;-69
2023/10/15 08:28:48;;;;;;;5.35;2.28;;;9.50;99.90;;;;;;5079425;28;20075;-68
2023/10/15 08:31:14;;;;;;;7.70;2.03;;;9.80;99.90;;;;;;5096530;28;20079;-68
2023/10/15 08:33:40;;;;;;;9.30;2.40;;;10.50;99.90;;;;;;5114081;28;20039;-69
2023/10/15 08:36:07;;;;;;;6.85;1.92;;;11.20;99.90;;;;;;5079435;28;20043;-70
2023/10/15 08:38:34;;;;;;;7.38;1.67;;;11.00;99.90;;;;;;5096070;28;20481;-74
2023/10/15 08:41:08;;;;;;;6.40;1.67;;;10.30;99.90;;;;;;5096280;28;20079;-67
2023/10/15 08:43:34;;;;;;;10.23;1.90;;;9.70;99.90;;;;;;5113960;28;20092;-75
2023/10/15 08:46:09;;;;;;;7.63;1.75;;;9.20;99.90;;;;;;5079490;28;20401;-71
2023/10/15 08:48:37;;;;;;;5.57;1.80;;;8.70;99.90;;;;;;5079175;28;20048;-70
2023/10/15 08:51:04;;;;;;;3.25;1.13;;;8.30;99.90;;;;;;5114210;28;20190;-70
2023/10/15 08:53:30;;;;;;;5.47;1.50;;;8.10;99.90;;;;;;5095751;28;20081;-70
2023/10/15 08:56:01;;;;;;;6.95;1.42;;;8.00;99.90;;;;;;5114147;28;20043;-69
2023/10/15 08:58:29;;;;;;;3.15;1.35;;;7.90;99.90;;;;;;5114532;28;20047;-70
2023/10/15 09:01:00;;;;;;;6.45;1.40;;;7.90;99.90;;;;;;5079273;28;20079;-70
2023/10/15 09:03:26;;;;;;;6.03;1.70;;;7.90;99.90;;;;;;5080090;28;20126;-70
2023/10/15 09:05:52;;;;;;;5.55;1.30;;;7.90;99.90;;;;;;5113757;28;20469;-70
2023/10/15 09:08:20;;;;;;;3.35;1.27;;;8.00;99.90;;;;;;5081160;28;20083;-69
2023/10/15 09:10:46;;;;;;;4.95;1.35;;;8.00;99.90;;;;;;5114026;28;20438;-70
2023/10/15 09:13:15;;;;;;;4.22;1.50;;;8.00;99.90;;;;;;5081648;28;20140;-70
2023/10/15 09:15:55;;;;;;;3.85;1.27;;;8.10;99.90;;;;;;5113048;28;20578;-70
2023/10/15 09:18:24;;;;;;;4.32;1.05;;;8.30;99.90;;;;;;5095740;28;20097;-69
2023/10/15 09:20:52;;;;;;;9.23;1.95;;;8.40;99.90;;;;;;5095766;28;20104;-70
2023/10/15 09:23:21;;;;;;;7.32;1.60;;;8.70;99.90;;;;;;5113675;28;20104;-69
2023/10/15 09:25:51;;;;;;;8.23;1.73;;;8.90;99.90;;;;;;5095142;28;20039;-73
2023/10/15 09:28:17;;;;;;;7.55;1.77;;;9.10;99.90;;;;;;5113499;28;20047;-70
2023/10/15 09:30:46;;;;;;;5.70;1.42;;;9.30;99.90;;;;;;5078083;28;20518;-70
2023/10/15 09:33:16;;;;;;;8.48;1.45;;;9.50;99.90;;;;;;5095112;28;20048;-69
2023/10/15 09:35:42;;;;;;;6.65;1.50;;;9.60;99.90;;;;;;5095028;28;20047;-70
2023/10/15 09:38:14;;;;;;;7.07;1.60;;;9.70;99.90;;;;;;5078700;28;20097;-70
2023/10/15 09:40:43;;;;;;;7.35;1.58;;;9.80;99.90;;;;;;5095232;28;20040;-75
2023/10/15 09:43:10;;;;;;;6.32;1.40;;;9.90;99.90;;;;;;5062162;28;20476;-69
2023/10/15 09:45:36;;;;;;;3.58;1.20;;;9.90;99.90;;;;;;5078394;28;20050;-69
2023/10/15 09:48:02;;;;;;;5.35;1.30;;;9.90;99.90;;;;;;5112839;28;20051;-69
2023/10/15 09:50:31;;;;;;;8.35;1.48;;;10.00;99.90;;;;;;5095100;28;20051;-70
2023/10/15 09:53:09;;;;;;;9.45;1.20;;;10.00;99.90;;;;;;5112844;28;20054;-70
2023/10/15 09:55:35;;;;;;;5.65;1.40;;;10.10;99.90;;;;;;5095114;28;20051;-70
2023/10/15 09:58:04;;;;;;;7.05;1.50;;;10.10;99.90;;;;;;5094249;28;20055;-70
2023/10/15 10:03:22;;;;;;;8.43;1.67;;;10.30;99.90;;;;;;5110655;28;20050;-70
2023/10/15 10:06:09;;;;;;;7.85;1.60;;;10.40;99.90;;;;;;5076810;28;20488;-70
2023/10/15 10:09:06;;;;;;;5.97;1.48;;;10.50;99.90;;;;;;5092659;28;20135;-71
2023/10/15 10:11:54;;;;;;;7.65;1.65;;;10.60;99.90;;;;;;5091469;28;20527;-70
2023/10/15 10:14:36;;;;;;;5.82;1.73;;;10.80;99.90;;;;;;5094073;28;20488;-71
2023/10/15 10:17:02;;;;;;;7.05;1.95;;;11.00;99.90;;;;;;5094569;28;20124;-71
2023/10/15 10:19:29;;;;;;;5.55;1.80;;;11.10;99.90;;;;;;5094695;28;20554;-69
2023/10/15 10:21:58;;;;;;;4.78;1.50;;;11.00;99.90;;;;;;5060731;28;20044;-73
2023/10/15 10:24:40;;;;;;;4.97;1.70;;;10.80;99.90;;;;;;5094758;28;20039;-70
2023/10/15 10:27:14;;;;;;;5.32;1.23;;;10.50;99.90;;;;;;5112594;28;20048;-71
2023/10/15 10:29:42;;;;;;;3.22;0.73;;;10.20;99.90;;;;;;5077715;28;20130;-69
2023/10/15 10:32:14;;;;;;;4.15;1.20;;;10.10;99.90;;;;;;5094045;28;20051;-71
2023/10/15 10:34:41;;;;;;;4.15;1.00;;;10.10;99.90;;;;;;5112456;28;20047;-70
2023/10/15 10:37:33;;;;;;;5.88;1.20;;;10.20;99.90;;;;;;5094323;28;20384;-71
2023/10/15 10:40:00;;;;;;;4.35;1.30;;;10.30;99.90;;;;;;5089867;28;20582;-72
2023/10/15 10:42:29;;;;;;;4.22;1.50;;;10.50;99.90;;;;;;5077888;28;20048;-70
2023/10/15 10:44:58;;;;;;;5.65;1.30;;;10.80;99.90;;;;;;5094479;28;20125;-69
2023/10/15 10:47:29;;;;;;;6.95;1.73;;;11.00;99.90;;;;;;5112748;28;20039;-70
2023/10/15 10:50:00;;;;;;;10.68;1.92;;;11.00;99.90;;;;;;5094125;28;20051;-71
2023/10/15 10:52:36;;;;;;;7.20;1.80;;;10.90;99.90;;;;;;5112518;28;20060;-70
2023/10/15 10:55:47;;;;;;;6.45;1.35;;;10.70;99.90;;;;;;5044693;28;20494;-70
2023/10/15 10:58:26;;;;;;;8.38;1.50;;;10.60;99.90;;;;;;5075516;28;20501;-71
2023/10/15 11:00:53;;;;;;;6.88;1.50;;;10.50;99.90;;;;;;5094410;28;20051;-70
2023/10/15 11:03:20;;;;;;;12.60;1.83;;;10.50;99.90;;;;;;5094612;28;20043;-71
2023/10/15 11:05:46;;;;;;;8.77;1.70;;;10.50;99.90;;;;;;5094449;28;20051;-76
2023/10/15 11:08:20;;;;;;;6.05;1.58;;;10.60;99.90;;;;;;5094212;28;20192;-70
2023/10/15 11:10:47;;;;;;;2.83;0.90;;;10.70;99.90;;;;;;5112436;28;20143;-70
2023/10/15 11:13:15;;;;;;;5.70;1.42;;;10.70;99.90;;;;;;5093940;28;20051;-70
2023/10/15 11:15:49;;;;;;;4.95;1.73;;;10.60;99.90;;;;;;5094229;28;20058;-71
2023/10/15 11:18:24;;;;;;;3.17;1.40;;;10.60;99.90;;;;;;5094316;28;20135;-71
2023/10/15 11:20:52;;;;;;;;;;;10.60;99.90;;;;;;5095395;28;20039;-71
2023/10/15 11:23:19;;;;;;;8.50;2.08;;;10.70;99.90;;;;;;5094874;28;19926;-72
2023/10/15 11:25:45;;;;;;;5.05;1.60;;;10.80;99.90;;;;;;5094167;28;20062;-71
2023/10/15 11:28:12;;;;;;;6.43;1.80;;;11.00;99.90;;;;;;5111959;28;20051;-72
2023/10/15 11:30:44;;;;;;;6.15;1.77;;;11.20;99.90;;;;;;5077202;28;20036;-70
2023/10/15 11:33:10;;;;;;;7.00;1.35;;;11.30;99.90;;;;;;5045168;28;20443;-70
2023/10/15 11:35:38;;;;;;;5.25;1.55;;;11.40;99.90;;;;;;5097638;28;20067;-73
2023/10/15 11:38:10;;;;;;;8.25;1.70;;;11.40;99.90;;;;;;5080391;28;20044;-71
2023/10/15 11:40:37;;;;;;;6.28;1.52;;;11.30;99.90;;;;;;5080929;28;20048;-71
2023/10/15 11:43:04;;;;;;;12.20;2.00;;;11.20;99.90;;;;;;5097067;28;20401;-73
2023/10/15 11:45:30;;;;;;;4.60;1.70;;;11.10;99.90;;;;;;5097664;28;20106;-71
2023/10/15 11:47:57;;;;;;;5.13;1.55;;;11.10;99.90;;;;;;5097062;28;20449;-75
2023/10/15 11:50:24;;;;;;;3.88;1.50;;;11.10;99.90;;;;;;5080212;28;20507;-72
2023/10/15 11:52:52;;;;;;;6.63;1.50;;;11.10;99.90;;;;;;5080132;28;20067;-72
2023/10/15 11:55:24;;;;;;;5.72;1.65;;;11.10;99.90;;;;;;5096542;28;20048;-72
2023/10/15 11:57:50;;;;;;;8.63;1.58;;;11.20;99.90;;;;;;5097291;28;20130;-71
2023/10/15 12:00:31;;;;;;;8.98;1.80;;;11.30;99.90;;;;;;5114980;28;20043;-72
2023/10/15 12:03:01;;;;;;;8.55;1.65;;;11.40;99.90;;;;;;5064869;28;20058;-79
2023/10/15 12:05:31;;;;;;;10.90;1.90;;;11.50;99.90;;;;;;5097144;28;20040;-72
2023/10/15 12:08:04;;;;;;;6.13;1.63;;;11.60;99.90;;;;;;5079770;28;20050;-77
2023/10/15 12:10:31;;;;;;;7.05;1.35;;;11.70;99.90;;;;;;5096340;28;20039;-72
2023/10/15 12:12:58;;;;;;;5.07;1.50;;;11.70;99.90;;;;;;5114743;28;20126;-76
2023/10/15 12:15:29;;;;;;;7.20;1.73;;;11.70;99.90;;;;;;5096916;28;20101;-72
2023/10/15 12:17:56;;;;;;;9.35;2.08;;;11.60;99.90;;;;;;5097585;28;20051;-71
2023/10/15 12:20:24;;;;;;;7.05;1.77;;;11.50;99.90;;;;;;5096420;28;20059;-70
2023/10/15 12:22:50;;;;;;;7.55;1.65;;;11.50;99.90;;;;;;5096907;28;20047;-71
2023/10/15 12:25:16;;;;;;;11.90;2.50;;;11.60;99.90;;;;;;5114452;28;20054;-71
2023/10/15 12:27:42;;;;;;;6.85;1.50;;;11.60;99.90;;;;;;5079736;28;20107;-72
2023/10/15 12:30:13;;;;;;;4.82;1.75;;;11.80;99.90;;;;;;5096682;28;20036;-74
2023/10/15 12:32:39;;;;;;;4.93;1.50;;;11.90;99.90;;;;;;5081460;28;20058;-70
2023/10/15 12:35:10;;;;;;;5.93;1.75;;;12.00;99.90;;;;;;5096852;28;20051;-71
2023/10/15 12:37:36;;;;;;;6.22;1.50;;;12.10;99.90;;;;;;5079584;28;20112;-74
2023/10/15 12:40:10;;;;;;;8.10;1.70;;;12.30;99.90;;;;;;5113530;28;20400;-80
2023/10/15 12:42:37;;;;;;;4.75;1.30;;;12.40;99.90;;;;;;5096712;28;20126;-73
2023/10/15 12:45:03;;;;;;;4.45;1.40;;;12.40;99.90;;;;;;5079744;28;20078;-80
2023/10/15 12:47:29;;;;;;;3.05;1.42;;;12.20;99.90;;;;;;5080521;28;20389;-77
2023/10/15 12:49:55;;;;;;;5.88;1.40;;;12.20;99.90;;;;;;5077717;28;20083;-76
2023/10/15 12:52:21;;;;;;;4.20;0.88;;;12.10;99.90;;;;;;5062509;28;20087;-75
2023/10/15 12:54:46;;;;;;;2.63;1.08;;;12.10;99.90;;;;;;5095060;28;20064;-78
2023/10/15 12:57:12;;;;;;;4.03;1.30;;;12.00;99.90;;;;;;5094424;28;20100;-76
2023/10/15 12:59:38;;;;;;;4.28;1.48;;;12.00;99.90;;;;;;5077219;28;20050;-81
2023/10/15 13:02:04;;;;;;;6.80;1.58;;;12.00;99.90;;;;;;5063062;28;20040;-82
2023/10/15 13:04:30;;;;;;;4.95;1.27;;;11.90;99.90;;;;;;5079819;28;20182;-81
2023/10/15 13:06:55;;;;;;;7.82;2.03;;;11.80;99.90;;;;;;5063493;28;20085;-77
2023/10/15 13:09:25;;;;;;;4.47;1.63;;;11.70;99.90;;;;;;5096491;28;20508;-78
2023/10/15 13:11:53;;;;;;;7.68;1.80;;;11.60;99.90;;;;;;5080441;28;20051;-77
2023/10/15 13:14:19;;;;;;;5.45;1.75;;;11.50;99.90;;;;;;5063220;28;20043;-72
2023/10/15 13:16:46;;;;;;;7.05;1.70;;;11.50;99.90;;;;;;5062633;28;20051;-76
2023/10/15 13:19:13;;;;;;;6.45;1.70;;;11.50;99.90;;;;;;5078872;28;20040;-78
2023/10/15 13:21:40;;;;;;;5.00;1.40;;;11.50;99.90;;;;;;5114729;28;20054;-78
2023/10/15 13:24:06;;;;;;;5.97;1.38;;;11.60;99.90;;;;;;5115240;28;20152;-76